Time;durP1;ratioP1;P1;durP2;ratioP2;P2;SDS_P1;SDS_P2;PMS_P1;PMS_P2;Temp;Humidity;BMP_temperature;BMP_pressure;BME280_temperature;BME280_humidity;BME280_pressure;Samples;Min_cycle;Max_cycle;Signal;HPM_P1;HPM_P2
2024/04/03 00:00:36;;;;;;;13.40;12.80;;;10.00;99.90;;;;;;5018795;28;20537;-48
2024/04/03 00:03:01;;;;;;;13.60;12.80;;;9.90;1.00;;;;;;5020184;28;20194;-42
2024/04/03 00:05:27;;;;;;;13.97;13.13;;;10.00;1.00;;;;;;5018513;28;20935;-50
2024/04/03 00:07:52;;;;;;;14.10;13.10;;;10.00;1.00;;;;;;5020062;28;20182;-49
2024/04/03 00:10:19;;;;;;;13.70;13.03;;;10.00;99.90;;;;;;5019074;28;20731;-45
2024/04/03 00:12:45;;;;;;;13.50;12.47;;;10.00;1.00;;;;;;5019957;28;20600;-42
2024/04/03 00:15:10;;;;;;;13.80;13.00;;;10.10;99.90;;;;;;5019302;28;20425;-47
2024/04/03 00:17:36;;;;;;;13.33;12.63;;;10.00;1.00;;;;;;5019691;28;20565;-49
2024/04/03 00:20:02;;;;;;;14.03;12.63;;;10.00;99.90;;;;;;5018786;28;20198;-45
2024/04/03 00:22:28;;;;;;;13.20;12.50;;;10.00;1.00;;;;;;5019893;28;20193;-49
2024/04/03 00:24:53;;;;;;;13.80;12.70;;;10.00;1.00;;;;;;5019418;28;20418;-42
2024/04/03 00:27:19;;;;;;;13.27;12.67;;;10.10;99.90;;;;;;5019931;28;20587;-45
2024/04/03 00:29:48;;;;;;;12.93;12.23;;;10.10;99.90;;;;;;5017849;28;20653;-44
2024/04/03 00:32:14;;;;;;;13.20;12.43;;;10.10;99.90;;;;;;5019770;28;20265;-44
2024/04/03 00:34:40;;;;;;;12.87;12.07;;;10.20;99.90;;;;;;5019770;28;20413;-44
2024/04/03 00:37:06;;;;;;;12.47;11.93;;;10.20;99.90;;;;;;5019850;28;20519;-46
2024/04/03 00:39:32;;;;;;;12.80;12.13;;;10.30;1.00;;;;;;5018389;28;20414;-47
2024/04/03 00:41:58;;;;;;;13.37;12.50;;;10.20;1.00;;;;;;5019304;28;21005;-48
2024/04/03 00:44:23;;;;;;;12.67;12.03;;;10.30;19.90;;;;;;5019015;28;20519;-49
2024/04/03 00:46:50;;;;;;;12.80;11.90;;;10.40;1.00;;;;;;5019321;28;20267;-47
2024/04/03 00:49:19;;;;;;;11.80;11.20;;;10.40;1.00;;;;;;5019391;28;20443;-42
2024/04/03 00:51:49;;;;;;;11.53;10.90;;;10.40;99.90;;;;;;5018512;28;20433;-42
2024/04/03 00:54:16;;;;;;;11.80;11.10;;;10.40;99.90;;;;;;5019719;28;20415;-50
2024/04/03 00:56:42;;;;;;;11.90;11.30;;;10.50;15.10;;;;;;5019438;28;20413;-45
2024/04/03 00:59:08;;;;;;;11.57;10.80;;;10.50;1.00;;;;;;5019462;28;20482;-44
2024/04/03 01:01:33;;;;;;;11.37;10.77;;;10.50;1.00;;;;;;5018727;28;20453;-48
2024/04/03 01:03:59;;;;;;;11.17;10.57;;;10.60;1.00;;;;;;5017050;28;20660;-46
2024/04/03 01:06:24;;;;;;;11.87;11.13;;;10.60;1.00;;;;;;5019384;28;20206;-47
2024/04/03 01:08:50;;;;;;;11.13;10.63;;;10.60;99.90;;;;;;5018945;28;20645;-46
2024/04/03 01:11:17;;;;;;;11.70;11.00;;;10.70;99.90;;;;;;5018609;28;20187;-44
2024/04/03 01:13:43;;;;;;;11.30;10.60;;;10.70;99.90;;;;;;5019076;28;20566;-44
2024/04/03 01:16:09;;;;;;;11.60;11.00;;;10.80;99.90;;;;;;5018849;28;20646;-42
2024/04/03 01:18:37;;;;;;;11.50;10.90;;;10.80;99.90;;;;;;5018993;28;20523;-42
2024/04/03 01:21:02;;;;;;;11.40;10.90;;;10.80;98.20;;;;;;5018104;28;20244;-49
2024/04/03 01:23:28;;;;;;;11.50;10.87;;;10.90;61.30;;;;;;5019300;28;20417;-43
2024/04/03 01:25:54;;;;;;;11.47;10.80;;;11.00;8.10;;;;;;5018500;28;20206;-48
2024/04/03 01:28:22;;;;;;;11.43;11.00;;;11.00;1.00;;;;;;5018502;28;20191;-49
2024/04/03 01:30:48;;;;;;;11.67;11.07;;;11.00;1.00;;;;;;5018348;28;20186;-44
2024/04/03 01:33:13;;;;;;;11.70;11.10;;;11.00;1.00;;;;;;5018888;28;20417;-43
2024/04/03 01:35:39;;;;;;;11.93;11.30;;;11.10;1.00;;;;;;5018836;28;20925;-42
2024/04/03 01:38:05;;;;;;;12.23;11.13;;;11.20;1.00;;;;;;5019851;28;20194;-47
2024/04/03 01:40:31;;;;;;;11.70;11.10;;;11.10;1.00;;;;;;5018268;28;20191;-48
2024/04/03 01:42:56;;;;;;;11.70;11.10;;;11.10;1.00;;;;;;5022524;28;20182;-42
2024/04/03 01:45:22;;;;;;;11.97;11.30;;;11.10;1.00;;;;;;5022286;28;20433;-48
2024/04/03 01:47:48;;;;;;;11.10;10.60;;;11.20;1.00;;;;;;5022518;28;20619;-49
2024/04/03 01:50:20;;;;;;;11.53;10.90;;;11.20;1.00;;;;;;5021709;28;20333;-47
2024/04/03 01:52:47;;;;;;;11.20;10.60;;;11.20;1.00;;;;;;5022750;28;20660;-49
2024/04/03 01:55:13;;;;;;;11.33;10.83;;;11.20;1.00;;;;;;5022562;28;20424;-48
2024/04/03 01:57:39;;;;;;;11.27;10.67;;;11.20;1.00;;;;;;5022554;28;20535;-44
2024/04/03 02:00:06;;;;;;;11.30;10.80;;;11.20;1.00;;;;;;5021355;28;20519;-45
2024/04/03 02:02:32;;;;;;;12.00;11.20;;;11.30;1.00;;;;;;5022015;28;20270;-43
2024/04/03 02:04:57;;;;;;;10.97;10.37;;;11.30;1.00;;;;;;5022132;28;20423;-44
2024/04/03 02:07:23;;;;;;;11.37;10.70;;;11.40;1.00;;;;;;5022050;28;20202;-43
2024/04/03 02:09:48;;;;;;;11.50;10.90;;;11.30;1.00;;;;;;5021272;28;20650;-45
2024/04/03 02:12:14;;;;;;;11.73;10.97;;;11.40;1.00;;;;;;5021897;28;20179;-42
2024/04/03 02:14:40;;;;;;;10.83;10.23;;;11.40;1.00;;;;;;5020255;28;20588;-46
2024/04/03 02:17:05;;;;;;;11.20;10.70;;;11.40;1.00;;;;;;5021816;28;20186;-51
2024/04/03 02:19:31;;;;;;;11.53;10.87;;;11.40;1.00;;;;;;5021793;28;20291;-50
2024/04/03 02:21:57;;;;;;;11.13;10.63;;;11.40;1.00;;;;;;5020059;28;20720;-45
2024/04/03 02:24:22;;;;;;;11.87;11.27;;;11.40;1.00;;;;;;5021820;28;20190;-44
2024/04/03 02:26:48;;;;;;;11.30;10.80;;;11.40;1.00;;;;;;5021983;28;20297;-44
2024/04/03 02:29:14;;;;;;;11.40;10.90;;;11.50;1.00;;;;;;5021371;28;20201;-45
2024/04/03 02:31:40;;;;;;;12.07;11.43;;;11.50;1.00;;;;;;5020953;28;20186;-49
2024/04/03 02:34:07;;;;;;;11.60;10.73;;;11.40;1.00;;;;;;5021477;28;20418;-43
2024/04/03 02:36:32;;;;;;;11.33;10.83;;;11.40;1.00;;;;;;5021401;28;20183;-42
2024/04/03 02:38:58;;;;;;;11.20;10.70;;;11.40;1.00;;;;;;5021883;28;20425;-48
2024/04/03 02:41:24;;;;;;;11.30;10.80;;;11.30;1.00;;;;;;5019599;28;20581;-50
2024/04/03 02:43:49;;;;;;;11.53;10.83;;;11.40;1.00;;;;;;5021473;28;20898;-43
2024/04/03 02:46:15;;;;;;;11.63;11.07;;;11.40;1.00;;;;;;5021003;28;20213;-49
2024/04/03 02:48:40;;;;;;;11.77;11.17;;;11.50;1.00;;;;;;5020714;28;20185;-43
2024/04/03 02:51:09;;;;;;;12.10;11.20;;;11.50;1.00;;;;;;5021453;28;20684;-42
2024/04/03 02:53:35;;;;;;;11.87;11.27;;;11.50;1.00;;;;;;5020268;28;20193;-38
2024/04/03 02:56:05;;;;;;;11.40;10.80;;;11.40;1.00;;;;;;5021225;28;20429;-39
2024/04/03 02:58:31;;;;;;;11.30;10.70;;;11.30;1.00;;;;;;5020515;28;20429;-38
2024/04/03 03:00:59;;;;;;;11.40;10.70;;;11.30;1.00;;;;;;5019935;28;20473;-38
2024/04/03 03:03:26;;;;;;;11.90;11.10;;;11.30;1.00;;;;;;5020990;28;20758;-42
2024/04/03 03:05:53;;;;;;;11.50;10.90;;;11.40;1.00;;;;;;5021084;28;21306;-42
2024/04/03 03:08:19;;;;;;;11.27;10.73;;;11.30;1.00;;;;;;5020517;28;20462;-40
2024/04/03 03:10:45;;;;;;;11.43;10.83;;;11.30;1.00;;;;;;5021417;28;20425;-39
2024/04/03 03:13:10;;;;;;;11.60;11.03;;;11.20;1.00;;;;;;5020651;28;20413;-41
2024/04/03 03:15:36;;;;;;;10.97;10.47;;;11.30;1.00;;;;;;5020778;28;20633;-39
2024/04/03 03:18:02;;;;;;;11.07;10.60;;;11.20;1.00;;;;;;5020649;28;20234;-38
2024/04/03 03:20:27;;;;;;;10.80;10.30;;;11.20;1.00;;;;;;5019377;28;20633;-40
2024/04/03 03:22:53;;;;;;;11.93;11.33;;;11.30;1.00;;;;;;5020773;28;20190;-39
2024/04/03 03:25:18;;;;;;;11.50;10.80;;;11.20;1.00;;;;;;5021087;28;20613;-46
2024/04/03 03:27:44;;;;;;;11.00;10.50;;;11.10;1.00;;;;;;5019160;28;20340;-44
2024/04/03 03:30:10;;;;;;;11.50;11.00;;;11.10;1.00;;;;;;5019741;28;20591;-47
2024/04/03 03:32:35;;;;;;;11.50;10.80;;;11.00;1.00;;;;;;5020509;28;20466;-44
2024/04/03 03:35:01;;;;;;;12.00;11.40;;;11.00;1.00;;;;;;5020881;28;20707;-45
2024/04/03 03:37:27;;;;;;;11.60;10.90;;;10.90;1.00;;;;;;5020490;28;20187;-38
2024/04/03 03:39:52;;;;;;;11.43;10.90;;;10.80;1.00;;;;;;5020293;28;20217;-39
2024/04/03 03:42:18;;;;;;;11.37;10.60;;;10.70;1.00;;;;;;5019421;28;20394;-37
2024/04/03 03:44:44;;;;;;;10.70;10.30;;;10.70;1.00;;;;;;5020483;28;20709;-46
2024/04/03 03:47:09;;;;;;;10.97;10.43;;;10.70;1.00;;;;;;5020067;28;20465;-49
2024/04/03 03:52:37;;;;;;;11.20;10.70;;;10.60;1.00;;;;;;5020062;28;20182;-43
2024/04/03 03:55:04;;;;;;;10.90;10.40;;;10.60;1.00;;;;;;5020237;28;20424;-50
2024/04/03 03:57:30;;;;;;;10.30;9.80;;;10.50;1.00;;;;;;5019721;28;20433;-47
2024/04/03 03:59:57;;;;;;;10.20;9.77;;;10.50;1.00;;;;;;5020123;28;20476;-48
2024/04/03 04:02:23;;;;;;;10.60;10.00;;;10.40;1.00;;;;;;5020868;28;20882;-50
2024/04/03 04:04:50;;;;;;;10.60;10.20;;;10.40;1.00;;;;;;5021100;28;20437;-47
2024/04/03 04:07:18;;;;;;;10.90;10.23;;;10.40;1.00;;;;;;5020654;28;20465;-41
2024/04/03 04:09:50;;;;;;;10.73;10.13;;;10.30;1.00;;;;;;5020354;28;20467;-47
2024/04/03 04:12:18;;;;;;;10.63;10.10;;;10.30;1.00;;;;;;5020860;28;20417;-42
2024/04/03 04:14:51;;;;;;;11.40;10.70;;;10.20;1.00;;;;;;5020638;28;20892;-47
2024/04/03 04:17:18;;;;;;;11.13;10.40;;;10.20;1.00;;;;;;5020246;28;21034;-48
2024/04/03 04:19:44;;;;;;;11.40;10.80;;;10.20;1.00;;;;;;5020238;28;20440;-39
2024/04/03 04:22:10;;;;;;;11.10;10.60;;;10.10;1.00;;;;;;5021004;28;20530;-38
2024/04/03 04:24:37;;;;;;;11.17;10.47;;;10.10;1.00;;;;;;5020354;28;20499;-39
2024/04/03 04:27:07;;;;;;;11.27;10.77;;;10.10;1.00;;;;;;5020005;28;20468;-37
2024/04/03 04:29:40;;;;;;;10.60;10.20;;;10.00;1.00;;;;;;5019169;28;20510;-44
2024/04/03 04:32:10;;;;;;;10.57;10.13;;;10.00;1.00;;;;;;5019655;28;20439;-44
2024/04/03 04:34:39;;;;;;;10.70;10.20;;;10.10;1.00;;;;;;5019017;28;20432;-47
2024/04/03 04:37:05;;;;;;;10.80;10.10;;;10.00;1.00;;;;;;5020526;28;20421;-37
2024/04/03 04:39:31;;;;;;;10.77;9.97;;;9.90;1.00;;;;;;5020349;28;20457;-37
2024/04/03 04:41:57;;;;;;;11.13;10.47;;;10.00;1.00;;;;;;5020548;28;20517;-37
2024/04/03 04:44:23;;;;;;;10.40;9.90;;;9.90;1.00;;;;;;5019243;28;20448;-37
2024/04/03 04:46:50;;;;;;;10.57;9.77;;;10.00;1.00;;;;;;5020240;28;20245;-37
2024/04/03 04:49:22;;;;;;;10.80;10.20;;;10.00;1.00;;;;;;5016767;28;20429;-40
2024/04/03 04:51:48;;;;;;;10.30;9.83;;;10.10;1.00;;;;;;5018088;28;20946;-43
2024/04/03 04:54:15;;;;;;;9.80;9.20;;;10.20;1.00;;;;;;5019490;28;20483;-50
2024/04/03 04:56:45;;;;;;;10.70;10.10;;;10.30;1.00;;;;;;5019253;28;20420;-41
2024/04/03 04:59:11;;;;;;;10.00;9.50;;;10.30;1.00;;;;;;5018872;28;20796;-45
2024/04/03 05:01:38;;;;;;;10.00;9.50;;;10.40;1.00;;;;;;5017167;28;20452;-42
2024/04/03 05:04:04;;;;;;;9.90;9.40;;;10.50;1.00;;;;;;5019202;28;20417;-50
2024/04/03 05:06:30;;;;;;;10.20;9.80;;;10.60;1.00;;;;;;5019046;28;20595;-43
2024/04/03 05:08:56;;;;;;;10.07;9.47;;;10.60;1.00;;;;;;5018955;28;21501;-42
2024/04/03 05:11:22;;;;;;;10.20;9.70;;;10.70;1.00;;;;;;5018047;28;20801;-50
2024/04/03 05:13:48;;;;;;;9.67;9.20;;;10.60;1.00;;;;;;5019177;28;20429;-45
2024/04/03 05:16:18;;;;;;;10.33;9.87;;;10.60;1.00;;;;;;5020409;28;20915;-46
2024/04/03 05:18:44;;;;;;;10.30;9.80;;;10.60;1.00;;;;;;5022190;28;20249;-46
2024/04/03 05:21:11;;;;;;;10.30;9.70;;;10.60;1.00;;;;;;5023127;28;20512;-43
2024/04/03 05:23:37;;;;;;;10.20;9.70;;;10.70;1.00;;;;;;5023055;28;20189;-49
2024/04/03 05:26:05;;;;;;;9.80;9.30;;;10.70;1.00;;;;;;5023159;28;20460;-50
2024/04/03 05:28:33;;;;;;;9.83;9.23;;;10.70;1.00;;;;;;5021993;28;20894;-47
2024/04/03 05:31:06;;;;;;;10.63;9.93;;;10.70;1.00;;;;;;5022809;28;20471;-44
2024/04/03 05:33:32;;;;;;;10.00;9.37;;;10.70;1.00;;;;;;5022784;28;20926;-50
2024/04/03 05:35:59;;;;;;;9.80;9.30;;;10.70;1.00;;;;;;5022708;28;20424;-42
2024/04/03 05:38:26;;;;;;;9.97;9.57;;;10.80;1.00;;;;;;5022274;28;20475;-50
2024/04/03 05:40:52;;;;;;;10.40;9.80;;;10.80;1.00;;;;;;5022903;28;20429;-49
2024/04/03 05:43:18;;;;;;;9.70;9.30;;;10.80;1.00;;;;;;5022545;28;20767;-48
2024/04/03 05:45:44;;;;;;;9.77;9.27;;;10.90;1.00;;;;;;5022553;28;20421;-48
2024/04/03 05:48:10;;;;;;;10.60;9.90;;;11.00;1.00;;;;;;5022582;28;20444;-43
2024/04/03 05:50:36;;;;;;;9.90;9.40;;;11.00;1.00;;;;;;5021139;28;20443;-51
2024/04/03 05:53:02;;;;;;;9.67;9.17;;;11.00;1.00;;;;;;5022738;28;20425;-51
2024/04/03 05:55:28;;;;;;;10.00;9.40;;;11.10;1.00;;;;;;5022311;28;20240;-48
2024/04/03 05:57:54;;;;;;;9.80;9.20;;;11.10;1.00;;;;;;5022511;28;20661;-50
2024/04/03 06:00:20;;;;;;;9.63;9.13;;;11.10;1.00;;;;;;5021759;28;20997;-46
2024/04/03 06:02:45;;;;;;;10.23;9.73;;;11.20;1.00;;;;;;5022466;28;20194;-44
2024/04/03 06:05:11;;;;;;;9.87;9.37;;;11.10;1.00;;;;;;5023142;28;21145;-47
2024/04/03 06:07:36;;;;;;;10.13;9.63;;;11.00;1.00;;;;;;5021969;28;20206;-49
2024/04/03 06:10:03;;;;;;;9.87;9.27;;;11.00;1.00;;;;;;5021623;28;20182;-44
2024/04/03 06:12:29;;;;;;;10.40;9.70;;;11.00;1.00;;;;;;5022415;28;20179;-43
2024/04/03 06:14:56;;;;;;;10.00;9.50;;;11.00;1.00;;;;;;5022125;28;20424;-42
2024/04/03 06:17:22;;;;;;;10.50;9.90;;;11.10;1.00;;;;;;5021662;28;21339;-46
2024/04/03 06:19:47;;;;;;;10.60;9.90;;;11.20;1.00;;;;;;5021001;28;20441;-42
2024/04/03 06:22:13;;;;;;;10.40;9.90;;;11.20;1.00;;;;;;5021836;28;20190;-49
2024/04/03 06:24:40;;;;;;;10.17;9.67;;;11.30;1.00;;;;;;5019180;28;20702;-42
2024/04/03 06:27:05;;;;;;;10.60;9.90;;;11.40;1.00;;;;;;5020917;28;20245;-43
2024/04/03 06:29:31;;;;;;;10.77;9.97;;;11.40;1.00;;;;;;5020668;28;20500;-45
2024/04/03 06:31:57;;;;;;;10.50;9.90;;;11.50;1.00;;;;;;5021846;28;20182;-46
2024/04/03 06:34:23;;;;;;;9.63;9.23;;;11.60;1.00;;;;;;5020705;28;20326;-45
2024/04/03 06:36:49;;;;;;;9.87;9.47;;;11.70;1.00;;;;;;5021920;28;20417;-43
2024/04/03 06:39:14;;;;;;;12.30;11.60;;;11.70;1.00;;;;;;5021538;28;20194;-42
2024/04/03 06:41:40;;;;;;;10.13;9.60;;;11.80;1.00;;;;;;5021887;28;20529;-45
2024/04/03 06:44:05;;;;;;;10.47;9.90;;;11.80;1.00;;;;;;5021616;28;20588;-52
2024/04/03 06:46:31;;;;;;;10.80;9.70;;;11.90;1.00;;;;;;5019841;28;20256;-44
2024/04/03 06:48:57;;;;;;;10.30;9.80;;;12.00;1.00;;;;;;5022190;28;20202;-46
2024/04/03 06:51:22;;;;;;;9.57;9.07;;;12.00;1.00;;;;;;5021425;28;20182;-44
2024/04/03 06:53:51;;;;;;;9.70;9.20;;;12.00;1.00;;;;;;5021188;28;20190;-42
2024/04/03 06:56:16;;;;;;;10.10;9.47;;;12.10;1.00;;;;;;5021059;28;21004;-48
2024/04/03 06:58:42;;;;;;;10.40;9.90;;;12.20;1.00;;;;;;5021230;28;20444;-45
2024/04/03 07:01:11;;;;;;;9.80;9.30;;;12.20;1.00;;;;;;5019977;28;20262;-47
2024/04/03 07:03:37;;;;;;;9.70;9.30;;;12.30;1.00;;;;;;5020352;28;20444;-48
2024/04/03 07:06:02;;;;;;;10.90;10.10;;;12.30;1.00;;;;;;5020829;28;20476;-45
2024/04/03 07:08:28;;;;;;;9.90;9.40;;;12.40;1.00;;;;;;5021062;28;20190;-44
2024/04/03 07:10:54;;;;;;;9.40;9.00;;;12.50;1.00;;;;;;5021197;28;20265;-38
2024/04/03 07:13:23;;;;;;;9.70;9.30;;;12.60;1.00;;;;;;5020143;28;20225;-46
2024/04/03 07:15:49;;;;;;;10.10;9.70;;;12.60;1.00;;;;;;5021205;28;20213;-46
2024/04/03 07:18:16;;;;;;;9.83;9.43;;;12.70;1.00;;;;;;5020813;28;20472;-43
2024/04/03 07:20:41;;;;;;;9.47;9.00;;;12.70;1.00;;;;;;5020692;28;20451;-42
2024/04/03 07:23:07;;;;;;;9.70;9.30;;;12.70;1.00;;;;;;5018525;28;20437;-45
2024/04/03 07:25:33;;;;;;;9.70;9.13;;;12.60;1.00;;;;;;5021274;28;20179;-48
2024/04/03 07:28:10;;;;;;;9.60;9.10;;;12.60;1.00;;;;;;5020558;28;20464;-45
2024/04/03 07:30:35;;;;;;;10.47;9.97;;;12.70;1.00;;;;;;5018668;28;20636;-46
2024/04/03 07:33:02;;;;;;;10.20;9.60;;;12.90;1.00;;;;;;5021016;28;20482;-45
2024/04/03 07:35:29;;;;;;;10.23;9.60;;;13.10;1.00;;;;;;5020597;28;20178;-41
2024/04/03 07:37:55;;;;;;;9.90;9.30;;;13.10;1.00;;;;;;5020547;28;20497;-46
2024/04/03 07:40:21;;;;;;;10.10;9.60;;;13.20;1.00;;;;;;5018405;28;20766;-49
2024/04/03 07:42:47;;;;;;;10.50;9.90;;;13.20;1.00;;;;;;5020595;28;20749;-38
2024/04/03 07:45:13;;;;;;;9.77;9.33;;;13.30;1.00;;;;;;5020599;28;20187;-41
2024/04/03 07:47:38;;;;;;;10.07;9.50;;;13.40;1.00;;;;;;5020221;28;20834;-41
2024/04/03 07:50:08;;;;;;;10.13;9.60;;;13.40;1.00;;;;;;5019630;28;20178;-44
2024/04/03 07:52:38;;;;;;;9.50;9.00;;;13.40;1.00;;;;;;5020269;28;20376;-46
2024/04/03 07:55:07;;;;;;;9.60;9.17;;;13.50;1.00;;;;;;5019765;28;20941;-47
2024/04/03 07:57:34;;;;;;;9.80;9.30;;;13.60;1.00;;;;;;5020619;28;20471;-47
2024/04/03 08:00:04;;;;;;;9.43;8.90;;;13.40;1.00;;;;;;5020135;28;20447;-49
2024/04/03 08:02:41;;;;;;;9.97;9.37;;;13.50;1.00;;;;;;5020773;28;21082;-47
2024/04/03 08:05:09;;;;;;;9.73;9.23;;;13.50;1.00;;;;;;5020122;28;20425;-41
2024/04/03 08:07:35;;;;;;;9.13;8.67;;;13.60;1.00;;;;;;5020210;28;21045;-43
2024/04/03 08:10:09;;;;;;;10.27;9.67;;;13.70;1.00;;;;;;5019937;28;20425;-46
2024/04/03 08:12:37;;;;;;;9.60;9.20;;;13.60;1.00;;;;;;5020363;28;20409;-44
2024/04/03 08:15:03;;;;;;;9.57;9.17;;;13.70;1.00;;;;;;5019993;28;20908;-41
2024/04/03 08:17:29;;;;;;;9.67;9.17;;;14.00;1.00;;;;;;5019713;28;20500;-47
2024/04/03 08:19:56;;;;;;;9.77;9.33;;;14.20;1.00;;;;;;5019701;28;20474;-43
2024/04/03 08:22:22;;;;;;;9.60;9.20;;;14.20;1.00;;;;;;5017988;28;20217;-42
2024/04/03 08:24:50;;;;;;;9.80;9.40;;;14.10;1.00;;;;;;5018412;28;20483;-48
2024/04/03 08:27:16;;;;;;;9.83;9.33;;;14.10;1.00;;;;;;5019653;28;20457;-52
2024/04/03 08:29:43;;;;;;;10.27;9.67;;;14.10;1.00;;;;;;5019626;28;20947;-46
2024/04/03 08:32:09;;;;;;;9.80;9.37;;;14.00;1.00;;;;;;5017784;28;20491;-50
2024/04/03 08:34:35;;;;;;;10.30;9.60;;;13.90;1.00;;;;;;5019520;28;20914;-44
2024/04/03 08:37:01;;;;;;;10.93;10.23;;;13.90;1.00;;;;;;5019310;28;20437;-48
2024/04/03 08:39:26;;;;;;;10.33;9.73;;;14.00;1.00;;;;;;5019744;28;20317;-44
2024/04/03 08:41:56;;;;;;;11.30;10.67;;;13.90;1.00;;;;;;5019146;28;20652;-45
2024/04/03 08:44:22;;;;;;;10.00;9.40;;;13.90;1.00;;;;;;5018949;28;20201;-47
2024/04/03 08:46:49;;;;;;;10.17;9.57;;;13.90;1.00;;;;;;5019959;28;20486;-42
2024/04/03 08:49:18;;;;;;;10.10;9.60;;;13.90;1.00;;;;;;5019645;28;20570;-45
2024/04/03 08:52:10;;;;;;;9.90;9.40;;;13.90;1.00;;;;;;5019147;28;20417;-48
2024/04/03 08:54:39;;;;;;;10.40;9.80;;;13.80;1.00;;;;;;5019311;28;20420;-40
2024/04/03 08:57:06;;;;;;;10.60;10.00;;;13.80;1.00;;;;;;5019901;28;20544;-41
2024/04/03 08:59:33;;;;;;;10.30;9.80;;;13.90;1.00;;;;;;5019088;28;20409;-42
2024/04/03 09:01:58;;;;;;;10.40;9.90;;;13.80;1.00;;;;;;5019497;28;20974;-41
2024/04/03 09:04:24;;;;;;;10.20;9.70;;;13.90;1.00;;;;;;5019593;28;20479;-39
2024/04/03 09:06:50;;;;;;;10.10;9.63;;;14.00;1.00;;;;;;5018723;28;20577;-40
2024/04/03 09:09:24;;;;;;;10.03;9.53;;;14.10;1.00;;;;;;5018120;28;20816;-38
2024/04/03 09:11:51;;;;;;;10.00;9.30;;;14.20;1.00;;;;;;5019156;28;20244;-43
2024/04/03 09:14:20;;;;;;;10.40;9.70;;;14.30;1.00;;;;;;5019124;28;20407;-39
2024/04/03 09:16:46;;;;;;;10.07;9.57;;;14.40;1.00;;;;;;5017615;28;20457;-42
2024/04/03 09:19:13;;;;;;;9.97;9.57;;;14.40;1.00;;;;;;5018553;28;20970;-44
2024/04/03 09:21:39;;;;;;;10.67;10.00;;;14.40;1.00;;;;;;5019608;28;20500;-39
2024/04/03 09:24:06;;;;;;;9.87;9.37;;;14.30;1.00;;;;;;5019115;28;20973;-41
2024/04/03 09:26:32;;;;;;;9.97;9.47;;;14.10;1.00;;;;;;5018283;28;20492;-41
2024/04/03 09:29:06;;;;;;;9.97;9.27;;;14.10;1.00;;;;;;5019268;28;20428;-39
2024/04/03 09:31:32;;;;;;;9.80;9.30;;;14.10;1.00;;;;;;5019227;28;20416;-40
2024/04/03 09:33:59;;;;;;;9.90;9.50;;;14.10;1.00;;;;;;5019418;28;21049;-38
2024/04/03 09:36:24;;;;;;;10.40;9.80;;;14.10;1.00;;;;;;5018167;28;20187;-38
2024/04/03 09:38:50;;;;;;;10.40;9.80;;;14.00;1.00;;;;;;5018990;28;20421;-40
2024/04/03 09:41:17;;;;;;;10.40;9.90;;;14.10;1.00;;;;;;5019328;28;20193;-39
2024/04/03 09:43:47;;;;;;;10.00;9.53;;;14.20;1.00;;;;;;5018975;28;20209;-39
2024/04/03 09:46:14;;;;;;;10.50;9.90;;;14.40;1.00;;;;;;5018087;28;20457;-43
2024/04/03 09:48:41;;;;;;;9.80;9.30;;;14.60;1.00;;;;;;5019363;28;20780;-39
2024/04/03 09:51:07;;;;;;;10.30;9.80;;;14.70;1.00;;;;;;5019257;28;20417;-39
2024/04/03 09:53:33;;;;;;;9.63;9.13;;;14.80;1.00;;;;;;5018634;28;20646;-40
2024/04/03 09:55:59;;;;;;;10.30;9.80;;;14.90;1.00;;;;;;5018409;28;20436;-39
2024/04/03 09:58:30;;;;;;;9.60;9.10;;;14.90;99.90;;;;;;5019121;28;20443;-41
2024/04/03 10:01:00;;;;;;;10.20;9.70;;;15.00;99.90;;;;;;5019316;28;20489;-39
2024/04/03 10:03:29;;;;;;;9.70;9.27;;;15.00;99.90;;;;;;5021954;28;20467;-39
2024/04/03 10:06:00;;;;;;;9.87;9.37;;;15.10;1.00;;;;;;5022040;28;20919;-41
2024/04/03 10:08:33;;;;;;;10.73;10.17;;;15.30;99.90;;;;;;5022912;28;20417;-43
2024/04/03 10:11:06;;;;;;;10.40;9.90;;;15.70;99.90;;;;;;5022399;28;20837;-42
2024/04/03 10:13:35;;;;;;;10.70;10.20;;;16.00;99.90;;;;;;5022209;28;20409;-42
2024/04/03 10:16:01;;;;;;;10.63;10.00;;;16.30;99.90;;;;;;5020990;28;20426;-41
2024/04/03 10:18:28;;;;;;;10.03;9.53;;;16.50;99.90;;;;;;5037168;28;20999;-40
2024/04/03 10:20:56;;;;;;;10.40;9.90;;;16.40;99.90;;;;;;5022374;28;20467;-39
2024/04/03 10:23:22;;;;;;;9.80;9.40;;;16.50;99.90;;;;;;5022428;28;20997;-40
2024/04/03 10:25:47;;;;;;;9.80;9.40;;;16.40;99.90;;;;;;5021132;28;20427;-45
2024/04/03 10:28:14;;;;;;;10.47;10.00;;;16.50;99.90;;;;;;5020560;28;20965;-41
2024/04/03 10:30:40;;;;;;;10.20;9.70;;;16.50;99.90;;;;;;5020144;28;20273;-48
2024/04/03 10:33:06;;;;;;;9.93;9.53;;;16.60;99.90;;;;;;5022085;28;20720;-39
2024/04/03 10:35:32;;;;;;;10.17;9.77;;;17.10;99.90;;;;;;5021966;28;20195;-44
2024/04/03 10:38:01;;;;;;;9.70;9.30;;;17.40;99.90;;;;;;5021284;28;20263;-42
2024/04/03 10:40:27;;;;;;;11.27;10.67;;;17.70;99.90;;;;;;5021862;28;20454;-39
2024/04/03 10:42:53;;;;;;;10.27;9.87;;;17.70;99.90;;;;;;5022221;28;20417;-38
2024/04/03 10:45:19;;;;;;;9.93;9.50;;;17.30;99.90;;;;;;5021331;28;20466;-39
2024/04/03 10:47:47;;;;;;;10.33;9.80;;;16.90;99.90;;;;;;5020819;28;20214;-42
2024/04/03 10:50:14;;;;;;;10.30;9.90;;;16.40;99.90;;;;;;5021182;28;20425;-44
2024/04/03 10:52:40;;;;;;;10.20;9.70;;;15.90;99.90;;;;;;5021726;28;20421;-49
2024/04/03 10:55:06;;;;;;;9.83;9.43;;;15.90;99.90;;;;;;5021193;28;21239;-45
2024/04/03 10:57:31;;;;;;;10.07;9.67;;;16.00;99.90;;;;;;5021111;28;20584;-44
2024/04/03 10:59:57;;;;;;;9.30;9.00;;;16.10;99.90;;;;;;5021417;28;21128;-44
2024/04/03 11:02:23;;;;;;;10.00;9.60;;;15.90;99.90;;;;;;5021341;28;20183;-46
2024/04/03 11:04:52;;;;;;;10.00;9.60;;;16.00;99.90;;;;;;5021708;28;20448;-47
2024/04/03 11:07:17;;;;;;;9.80;9.40;;;16.10;99.90;;;;;;5020239;28;20313;-47
2024/04/03 11:09:43;;;;;;;9.80;9.40;;;16.00;99.90;;;;;;5021310;28;20945;-45
2024/04/03 11:12:12;;;;;;;9.70;9.30;;;15.90;99.90;;;;;;5021227;28;20552;-45
2024/04/03 11:14:38;;;;;;;10.67;10.07;;;15.50;99.90;;;;;;5021092;28;20580;-44
2024/04/03 11:17:08;;;;;;;9.30;8.90;;;15.60;99.90;;;;;;5020943;28;20437;-44
2024/04/03 11:19:37;;;;;;;10.00;9.53;;;15.70;99.90;;;;;;5020950;28;21265;-46
2024/04/03 11:22:03;;;;;;;9.63;9.23;;;15.70;99.90;;;;;;5020860;28;21022;-39
2024/04/03 11:24:28;;;;;;;9.70;9.20;;;15.70;99.90;;;;;;5021537;28;20543;-44
2024/04/03 11:26:54;;;;;;;10.30;9.80;;;15.70;99.90;;;;;;5020531;28;21059;-37
2024/04/03 11:29:31;;;;;;;9.90;9.50;;;15.60;99.90;;;;;;5020354;28;20207;-43
2024/04/03 11:31:58;;;;;;;9.57;9.20;;;15.60;99.90;;;;;;5020241;28;20787;-42
2024/04/03 11:34:27;;;;;;;10.27;9.77;;;15.60;99.90;;;;;;5020829;28;20425;-38
2024/04/03 11:36:56;;;;;;;9.77;9.37;;;15.60;99.90;;;;;;5020596;28;20421;-42
2024/04/03 11:39:22;;;;;;;10.07;9.67;;;15.60;99.90;;;;;;5019823;28;20441;-44
2024/04/03 11:41:47;;;;;;;10.30;9.80;;;15.50;99.90;;;;;;5020863;28;20840;-38
2024/04/03 11:44:14;;;;;;;9.37;9.00;;;15.30;99.90;;;;;;5020808;28;20186;-41
2024/04/03 11:46:43;;;;;;;9.50;9.10;;;15.40;99.90;;;;;;5020265;28;20238;-39
2024/04/03 11:49:09;;;;;;;9.93;9.43;;;15.40;99.90;;;;;;5019778;28;20441;-43
2024/04/03 11:51:34;;;;;;;10.40;9.90;;;15.40;99.90;;;;;;5020801;28;20428;-42
2024/04/03 11:54:00;;;;;;;10.37;9.87;;;15.40;99.90;;;;;;5020245;28;20194;-40
2024/04/03 11:56:29;;;;;;;10.40;9.70;;;15.50;99.90;;;;;;5020509;28;20711;-38
2024/04/03 11:58:55;;;;;;;10.63;10.20;;;15.20;99.90;;;;;;5019854;28;20269;-40
2024/04/03 12:01:21;;;;;;;10.20;9.70;;;15.30;99.90;;;;;;5020254;28;20508;-44
2024/04/03 12:03:46;;;;;;;10.47;9.97;;;15.40;99.90;;;;;;5019947;28;20915;-42
2024/04/03 12:06:12;;;;;;;10.50;10.00;;;15.30;99.90;;;;;;5020021;28;20469;-43
2024/04/03 12:08:38;;;;;;;10.80;10.30;;;15.40;99.90;;;;;;5018664;28;20607;-40
2024/04/03 12:11:04;;;;;;;10.60;10.20;;;15.50;99.90;;;;;;5019851;28;20709;-43
2024/04/03 12:13:31;;;;;;;9.60;9.20;;;15.60;99.90;;;;;;5020527;28;20421;-44
2024/04/03 12:15:59;;;;;;;10.60;10.20;;;15.70;99.90;;;;;;5020001;28;21000;-43
2024/04/03 12:18:37;;;;;;;10.60;10.10;;;15.70;99.90;;;;;;5015731;28;20476;-44
2024/04/03 12:21:09;;;;;;;10.57;10.07;;;15.70;99.90;;;;;;5017930;28;20432;-40
2024/04/03 12:23:35;;;;;;;10.50;10.10;;;15.80;99.90;;;;;;5018934;28;20788;-50
2024/04/03 12:26:03;;;;;;;10.80;10.30;;;15.90;99.90;;;;;;5018830;28;20421;-52
2024/04/03 12:28:29;;;;;;;10.70;10.20;;;15.90;99.90;;;;;;5019182;28;20540;-45
2024/04/03 12:30:55;;;;;;;10.03;9.63;;;15.70;99.90;;;;;;5019663;28;20526;-46
2024/04/03 12:33:22;;;;;;;9.70;9.23;;;15.90;99.90;;;;;;5020235;28;20234;-48
2024/04/03 12:35:48;;;;;;;10.50;10.00;;;16.20;99.90;;;;;;5021827;28;20170;-48
2024/04/03 12:38:13;;;;;;;9.87;9.33;;;16.20;99.90;;;;;;5019148;28;20868;-49
2024/04/03 12:40:39;;;;;;;10.90;10.40;;;16.30;99.90;;;;;;5021872;28;20236;-40
2024/04/03 12:43:05;;;;;;;10.90;10.40;;;16.40;99.90;;;;;;5021159;28;20373;-46